Time,TemperatureF,DewpointF,PressureIn,WindDirection,WindDirectionDegrees,WindSpeedMPH,WindSpeedGustMPH,Humidity,HourlyPrecipIn,Conditions,Clouds,dailyrainin,SoftwareType,DateUTC
2013-03-04 00:00:00,26.7,16.1,0.00,SSE,158,0.0,0.0,64,0.00,,,0.00,WUHU216HW,2013-03-04 05:00:00,
2013-03-04 00:05:00,26.7,16.1,0.00,SSE,158,0.0,0.0,64,0.00,,,0.00,WUHU216HW,2013-03-04 05:05:00,
2013-03-04 00:10:00,26.6,15.9,0.00,SE,135,0.0,0.0,64,0.00,,,0.00,WUHU216HW,2013-03-04 05:10:00,
2013-03-04 00:15:00,26.4,15.8,0.00,SE,135,3.3,3.3,64,0.00,,,0.00,WUHU216HW,2013-03-04 05:15:00,
2013-03-04 00:20:00,26.4,15.8,0.00,SSE,158,0.0,3.3,64,0.00,,,0.00,WUHU216HW,2013-03-04 05:20:00,
2013-03-04 00:25:00,26.4,15.8,0.00,SSE,158,0.0,2.2,64,0.00,,,0.00,WUHU216HW,2013-03-04 05:25:00,
2013-03-04 00:30:00,26.4,15.8,0.00,SE,135,0.0,1.1,64,0.00,,,0.00,WUHU216HW,2013-03-04 05:30:00,
2013-03-04 00:35:00,26.2,15.6,0.00,SE,135,0.0,0.4,64,0.00,,,0.00,WUHU216HW,2013-03-04 05:35:00,
2013-03-04 00:40:00,26.2,15.6,0.00,WSW,248,0.0,0.0,64,0.00,,,0.00,WUHU216HW,2013-03-04 05:40:00,
2013-03-04 00:45:00,26.2,15.6,0.00,SE,135,0.0,2.4,64,0.00,,,0.00,WUHU216HW,2013-03-04 05:45:00,
2013-03-04 00:50:00,26.2,15.6,0.00,ESE,113,0.0,2.4,64,0.00,,,0.00,WUHU216HW,2013-03-04 05:50:00,
2013-03-04 00:55:00,26.2,15.6,0.00,SSE,158,0.0,2.4,64,0.00,,,0.00,WUHU216HW,2013-03-04 05:55:00,
2013-03-04 01:00:00,26.0,15.4,0.00,SSE,158,0.0,0.0,64,0.00,,,0.00,WUHU216HW,2013-03-04 06:00:00,
2013-03-04 01:05:00,26.2,15.4,0.00,SSE,158,0.0,0.0,64,0.00,,,0.00,WUHU216HW,2013-03-04 06:05:00,
2013-03-04 01:10:00,26.0,15.4,0.00,ESE,113,0.0,0.0,64,0.00,,,0.00,WUHU216HW,2013-03-04 06:10:00,
2013-03-04 01:15:00,25.8,15.2,0.00,ESE,113,0.0,0.0,64,0.00,,,0.00,WUHU216HW,2013-03-04 06:15:00,
2013-03-04 01:20:00,25.8,15.2,0.00,ESE,113,0.0,0.0,64,0.00,,,0.00,WUHU216HW,2013-03-04 06:20:00,
2013-03-04 01:25:00,25.8,15.2,0.00,SE,135,0.0,0.0,64,0.00,,,0.00,WUHU216HW,2013-03-04 06:25:00,
2013-03-04 01:30:00,25.8,15.2,0.00,SSE,158,0.0,0.0,64,0.00,,,0.00,WUHU216HW,2013-03-04 06:30:00,
2013-03-04 01:35:00,25.7,15.4,0.00,ESE,113,3.1,3.1,65,0.00,,,0.00,WUHU216HW,2013-03-04 06:35:00,
2013-03-04 01:40:00,25.8,15.6,0.00,ESE,113,0.0,3.1,65,0.00,,,0.00,WUHU216HW,2013-03-04 06:40:00,
2013-03-04 01:45:00,25.8,15.6,0.00,SSE,158,0.0,0.0,65,0.00,,,0.00,WUHU216HW,2013-03-04 06:45:00,
2013-03-04 01:50:00,25.7,15.6,0.00,SSE,158,0.0,0.0,65,0.00,,,0.00,WUHU216HW,2013-03-04 06:50:00,
2013-03-04 01:55:00,25.8,15.4,0.00,SSE,158,0.0,0.0,65,0.00,,,0.00,WUHU216HW,2013-03-04 06:55:00,
2013-03-04 02:00:00,25.8,15.6,0.00,SSE,158,0.0,0.0,65,0.00,,,0.00,WUHU216HW,2013-03-04 07:00:00,
2013-03-04 02:05:00,25.8,15.6,0.00,SSE,158,0.0,0.0,65,0.00,,,0.00,WUHU216HW,2013-03-04 07:05:00,
2013-03-04 02:10:00,25.7,15.4,0.00,SSE,158,0.0,0.0,65,0.00,,,0.00,WUHU216HW,2013-03-04 07:10:00,
2013-03-04 02:15:00,25.7,15.4,0.00,SE,135,0.0,2.6,65,0.00,,,0.00,WUHU216HW,2013-03-04 07:15:00,
2013-03-04 02:20:00,25.7,15.4,0.00,SE,135,0.0,2.6,65,0.00,,,0.00,WUHU216HW,2013-03-04 07:20:00,
2013-03-04 02:25:00,25.8,15.6,0.00,SE,135,0.0,0.0,65,0.00,,,0.00,WUHU216HW,2013-03-04 07:25:00,
2013-03-04 02:30:00,25.8,15.6,0.00,SE,135,0.0,0.0,65,0.00,,,0.00,WUHU216HW,2013-03-04 07:30:00,
2013-03-04 02:35:00,25.8,15.6,0.00,SSE,158,0.0,2.6,65,0.00,,,0.00,WUHU216HW,2013-03-04 07:35:00,
2013-03-04 02:40:00,25.8,15.6,0.00,SSE,158,0.0,2.6,65,0.00,,,0.00,WUHU216HW,2013-03-04 07:40:00,
2013-03-04 02:45:00,25.8,15.6,0.00,SSE,158,0.0,0.0,65,0.00,,,0.00,WUHU216HW,2013-03-04 07:45:00,
2013-03-04 02:50:00,25.8,15.6,0.00,SSE,158,0.0,0.0,65,0.00,,,0.00,WUHU216HW,2013-03-04 07:50:00,
2013-03-04 02:55:00,26.0,15.8,0.00,SSE,158,0.0,0.0,65,0.00,,,0.00,WUHU216HW,2013-03-04 07:55:00,
2013-03-04 03:00:00,26.0,15.8,0.00,SSE,158,0.0,0.0,65,0.00,,,0.00,WUHU216HW,2013-03-04 08:00:00,
2013-03-04 03:05:00,26.0,15.8,0.00,SSE,158,1.1,1.1,65,0.00,,,0.00,WUHU216HW,2013-03-04 08:05:00,
2013-03-04 03:10:00,26.0,15.8,0.00,SSE,158,0.0,1.1,65,0.00,,,0.00,WUHU216HW,2013-03-04 08:10:00,
2013-03-04 03:15:00,26.0,16.1,0.00,SSE,158,0.0,0.0,66,0.00,,,0.00,WUHU216HW,2013-03-04 08:15:00,
2013-03-04 03:20:00,26.0,16.1,0.00,ESE,113,0.0,0.0,66,0.00,,,0.00,WUHU216HW,2013-03-04 08:20:00,
2013-03-04 03:25:00,26.0,16.1,0.00,ESE,113,0.0,0.0,66,0.00,,,0.00,WUHU216HW,2013-03-04 08:25:00,
2013-03-04 03:30:00,26.0,16.1,0.00,ESE,113,0.0,0.0,66,0.00,,,0.00,WUHU216HW,2013-03-04 08:30:00,
2013-03-04 03:35:00,26.0,16.1,0.00,ESE,113,0.0,0.0,66,0.00,,,0.00,WUHU216HW,2013-03-04 08:35:00,
2013-03-04 03:40:00,26.0,16.1,0.00,North,0,0.0,0.0,66,0.00,,,0.00,WUHU216HW,2013-03-04 08:40:00,
2013-03-04 03:45:00,26.2,16.3,0.00,ESE,113,0.0,0.0,66,0.00,,,0.00,WUHU216HW,2013-03-04 08:45:00,
2013-03-04 03:50:00,26.2,16.3,0.00,ESE,113,0.0,0.0,66,0.00,,,0.00,WUHU216HW,2013-03-04 08:50:00,
2013-03-04 03:55:00,26.2,16.3,0.00,SE,135,0.0,0.0,66,0.00,,,0.00,WUHU216HW,2013-03-04 08:55:00,
2013-03-04 04:00:00,26.2,16.3,0.00,ESE,113,1.5,1.5,66,0.00,,,0.00,WUHU216HW,2013-03-04 09:00:00,
2013-03-04 04:05:00,26.2,16.3,0.00,ESE,113,0.0,1.5,66,0.00,,,0.00,WUHU216HW,2013-03-04 09:05:00,
2013-03-04 04:10:00,26.2,16.3,0.00,ESE,113,0.0,0.0,66,0.00,,,0.00,WUHU216HW,2013-03-04 09:10:00,
2013-03-04 04:15:00,26.2,16.3,0.00,ESE,113,0.0,0.0,66,0.00,,,0.00,WUHU216HW,2013-03-04 09:15:00,
2013-03-04 04:20:00,26.2,16.3,0.00,SE,135,1.5,2.4,66,0.00,,,0.00,WUHU216HW,2013-03-04 09:20:00,
2013-03-04 04:25:00,26.2,16.3,0.00,SE,135,0.0,2.4,66,0.00,,,0.00,WUHU216HW,2013-03-04 09:25:00,
2013-03-04 04:30:00,26.2,16.3,0.00,SSE,158,0.0,5.3,66,0.00,,,0.00,WUHU216HW,2013-03-04 09:30:00,
2013-03-04 04:35:00,26.2,16.3,0.00,SE,135,0.0,5.3,66,0.00,,,0.00,WUHU216HW,2013-03-04 09:35:00,
2013-03-04 04:40:00,26.0,16.1,0.00,SE,135,0.0,3.5,66,0.00,,,0.00,WUHU216HW,2013-03-04 09:40:00,
2013-03-04 04:45:00,25.8,16.3,0.00,SE,135,0.0,2.4,67,0.00,,,0.00,WUHU216HW,2013-03-04 09:45:00,
2013-03-04 04:50:00,25.8,16.3,0.00,SSE,158,1.1,1.1,67,0.00,,,0.00,WUHU216HW,2013-03-04 09:50:00,
2013-03-04 04:55:00,25.8,16.3,0.00,SSE,158,0.0,1.1,67,0.00,,,0.00,WUHU216HW,2013-03-04 09:55:00,
2013-03-04 05:00:00,25.7,16.1,0.00,SW,225,0.0,1.1,67,0.00,,,0.00,WUHU216HW,2013-03-04 10:00:00,
2013-03-04 05:05:00,25.7,16.1,0.00,WNW,293,3.1,3.1,67,0.00,,,0.00,WUHU216HW,2013-03-04 10:05:00,
2013-03-04 05:10:00,25.7,16.1,0.00,WNW,293,0.0,3.1,67,0.00,,,0.00,WUHU216HW,2013-03-04 10:10:00,
2013-03-04 05:15:00,25.5,15.9,0.00,SSW,203,0.0,1.5,67,0.00,,,0.00,WUHU216HW,2013-03-04 10:15:00,
2013-03-04 05:20:00,25.5,15.9,0.00,SE,135,0.0,1.7,67,0.00,,,0.00,WUHU216HW,2013-03-04 10:20:00,
2013-03-04 05:25:00,25.5,15.9,0.00,SW,225,0.0,1.7,67,0.00,,,0.00,WUHU216HW,2013-03-04 10:25:00,
2013-03-04 05:30:00,25.5,15.9,0.00,SW,225,0.0,0.0,67,0.00,,,0.00,WUHU216HW,2013-03-04 10:30:00,
2013-03-04 05:35:00,25.5,15.9,0.00,SSE,158,0.0,1.7,67,0.00,,,0.00,WUHU216HW,2013-03-04 10:35:00,
2013-03-04 05:40:00,25.5,15.9,0.00,South,180,0.0,1.7,67,0.00,,,0.00,WUHU216HW,2013-03-04 10:40:00,
2013-03-04 05:45:00,25.5,16.3,0.00,South,180,0.0,0.0,68,0.00,,,0.00,WUHU216HW,2013-03-04 10:45:00,
2013-03-04 05:50:00,25.3,16.1,0.00,South,180,0.0,0.0,68,0.00,,,0.00,WUHU216HW,2013-03-04 10:50:00,
2013-03-04 05:55:00,25.3,16.1,0.00,SW,225,0.0,0.0,68,0.00,,,0.00,WUHU216HW,2013-03-04 10:55:00,
2013-03-04 06:00:00,25.3,16.1,0.00,WSW,248,0.0,0.0,68,0.00,,,0.00,WUHU216HW,2013-03-04 11:00:00,
2013-03-04 06:05:00,25.3,16.1,0.00,WSW,248,0.0,0.0,68,0.00,,,0.00,WUHU216HW,2013-03-04 11:05:00,
2013-03-04 06:10:00,25.3,16.1,0.00,WSW,248,0.0,0.0,68,0.00,,,0.00,WUHU216HW,2013-03-04 11:10:00,
2013-03-04 06:15:00,25.3,16.1,0.00,WSW,248,0.0,0.0,68,0.00,,,0.00,WUHU216HW,2013-03-04 11:15:00,
2013-03-04 06:20:00,25.3,16.1,0.00,WSW,248,0.0,0.0,68,0.00,,,0.00,WUHU216HW,2013-03-04 11:20:00,
2013-03-04 06:25:00,25.1,15.9,0.00,WSW,248,0.0,0.0,68,0.00,,,0.00,WUHU216HW,2013-03-04 11:25:00,
2013-03-04 06:30:00,25.1,15.9,0.00,WSW,248,0.0,0.0,68,0.00,,,0.00,WUHU216HW,2013-03-04 11:30:00,
2013-03-04 06:35:00,25.1,15.9,0.00,WSW,248,0.0,0.0,68,0.00,,,0.00,WUHU216HW,2013-03-04 11:35:00,
2013-03-04 06:40:00,25.1,15.9,0.00,WSW,248,0.0,0.0,68,0.00,,,0.00,WUHU216HW,2013-03-04 11:40:00,
2013-03-04 06:45:00,24.9,15.8,0.00,NW,315,0.0,0.0,68,0.00,,,0.00,WUHU216HW,2013-03-04 11:45:00,
2013-03-04 06:50:00,24.9,15.8,0.00,NW,315,0.0,0.0,68,0.00,,,0.00,WUHU216HW,2013-03-04 11:50:00,
2013-03-04 06:55:00,24.9,15.8,0.00,NW,315,0.0,0.0,68,0.00,,,0.00,WUHU216HW,2013-03-04 11:55:00,
2013-03-04 07:00:00,24.9,15.8,0.00,NW,315,0.0,0.0,68,0.00,,,0.00,WUHU216HW,2013-03-04 12:00:00,
2013-03-04 07:05:00,24.9,15.8,0.00,NW,315,0.0,0.0,68,0.00,,,0.00,WUHU216HW,2013-03-04 12:05:00,
2013-03-04 07:10:00,24.9,15.8,0.00,NW,315,0.0,0.0,68,0.00,,,0.00,WUHU216HW,2013-03-04 12:10:00,
2013-03-04 07:15:00,24.9,15.8,0.00,SE,135,0.0,0.0,68,0.00,,,0.00,WUHU216HW,2013-03-04 12:15:00,
2013-03-04 07:20:00,24.9,15.8,0.00,SE,135,0.0,0.0,68,0.00,,,0.00,WUHU216HW,2013-03-04 12:20:00,
2013-03-04 07:25:00,24.9,15.8,0.00,SE,135,0.0,0.0,68,0.00,,,0.00,WUHU216HW,2013-03-04 12:25:00,
2013-03-04 07:30:00,25.1,15.9,0.00,SE,135,0.0,0.0,68,0.00,,,0.00,WUHU216HW,2013-03-04 12:30:00,
2013-03-04 07:35:00,25.1,15.9,0.00,SSE,158,0.0,0.0,68,0.00,,,0.00,WUHU216HW,2013-03-04 12:35:00,
2013-03-04 07:40:00,25.1,15.9,0.00,SE,135,0.0,0.0,68,0.00,,,0.00,WUHU216HW,2013-03-04 12:40:00,
2013-03-04 07:45:00,25.3,16.5,0.00,SE,135,2.6,2.6,68,0.00,,,0.00,WUHU216HW,2013-03-04 12:45:00,
2013-03-04 07:51:00,25.5,16.7,0.00,SE,135,3.1,3.5,69,0.00,,,0.00,WUHU216HW,2013-03-04 12:51:00,
2013-03-04 07:56:00,25.5,16.7,0.00,SSE,158,2.2,3.5,69,0.00,,,0.00,WUHU216HW,2013-03-04 12:56:00,
2013-03-04 08:01:00,25.7,16.8,0.00,SE,135,0.0,3.3,69,0.00,,,0.00,WUHU216HW,2013-03-04 13:01:00,
2013-03-04 08:06:00,25.8,17.0,0.00,SE,135,0.0,3.3,69,0.00,,,0.00,WUHU216HW,2013-03-04 13:06:00,
2013-03-04 08:11:00,26.2,17.4,0.00,SSE,158,1.7,1.7,69,0.00,,,0.00,WUHU216HW,2013-03-04 13:11:00,
2013-03-04 08:16:00,26.4,17.6,0.00,SE,135,0.0,1.7,69,0.00,,,0.00,WUHU216HW,2013-03-04 13:16:00,
2013-03-04 08:21:00,26.4,17.6,0.00,SSE,158,2.4,2.4,69,0.00,,,0.00,WUHU216HW,2013-03-04 13:21:00,
2013-03-04 08:26:00,26.7,17.9,0.00,SSE,158,2.6,2.9,69,0.00,,,0.00,WUHU216HW,2013-03-04 13:26:00,
2013-03-04 08:31:00,26.9,18.1,0.00,SSE,158,3.5,3.5,69,0.00,,,0.00,WUHU216HW,2013-03-04 13:31:00,
2013-03-04 08:36:00,27.1,18.3,0.00,SSE,158,4.0,4.0,69,0.00,,,0.00,WUHU216HW,2013-03-04 13:36:00,
2013-03-04 08:41:00,27.3,18.5,0.00,SSE,158,3.3,4.0,69,0.00,,,0.00,WUHU216HW,2013-03-04 13:41:00,
2013-03-04 08:46:00,27.6,18.8,0.00,SE,135,2.0,3.5,69,0.00,,,0.00,WUHU216HW,2013-03-04 13:46:00,
2013-03-04 08:51:00,27.8,19.0,0.00,SSE,158,1.1,3.5,69,0.00,,,0.00,WUHU216HW,2013-03-04 13:51:00,
2013-03-04 08:56:00,28.0,18.8,0.00,SE,135,0.0,3.5,68,0.00,,,0.00,WUHU216HW,2013-03-04 13:56:00,
2013-03-04 09:01:00,28.2,19.0,0.00,SE,135,0.0,2.4,68,0.00,,,0.00,WUHU216HW,2013-03-04 14:01:00,
2013-03-04 09:06:00,28.5,19.3,0.00,SE,135,4.0,4.0,68,0.00,,,0.00,WUHU216HW,2013-03-04 14:06:00,
2013-03-04 09:11:00,28.7,19.5,0.00,SE,135,2.2,4.6,68,0.00,,,0.00,WUHU216HW,2013-03-04 14:11:00,
2013-03-04 09:16:00,28.9,19.7,0.00,SE,135,2.6,4.6,68,0.00,,,0.00,WUHU216HW,2013-03-04 14:16:00,
2013-03-04 09:21:00,29.1,19.5,0.00,SSE,158,0.0,4.9,67,0.00,,,0.00,WUHU216HW,2013-03-04 14:21:00,
2013-03-04 09:26:00,29.3,19.6,0.00,SSE,158,0.0,4.9,67,0.00,,,0.00,WUHU216HW,2013-03-04 14:26:00,
2013-03-04 09:31:00,29.4,19.8,0.00,SSE,158,0.0,3.8,67,0.00,,,0.00,WUHU216HW,2013-03-04 14:31:00,
2013-03-04 09:36:00,29.8,19.7,0.00,WNW,293,0.0,3.8,66,0.00,,,0.00,WUHU216HW,2013-03-04 14:36:00,
2013-03-04 09:41:00,30.0,19.5,0.00,SW,225,0.0,4.6,65,0.00,,,0.00,WUHU216HW,2013-03-04 14:41:00,
2013-03-04 09:46:00,30.2,19.4,0.00,SE,135,3.1,4.6,64,0.00,,,0.00,WUHU216HW,2013-03-04 14:46:00,
2013-03-04 09:51:00,30.3,19.5,0.00,SSE,158,0.0,3.1,64,0.00,,,0.00,WUHU216HW,2013-03-04 14:51:00,
2013-03-04 09:56:00,30.7,19.9,0.00,SSE,158,0.0,2.6,64,0.00,,,0.00,WUHU216HW,2013-03-04 14:56:00,
2013-03-04 10:01:00,31.1,20.3,0.00,SW,225,0.0,2.4,64,0.00,,,0.00,WUHU216HW,2013-03-04 15:01:00,
2013-03-04 10:06:00,31.2,20.4,0.00,WSW,248,0.0,0.0,64,0.00,,,0.00,WUHU216HW,2013-03-04 15:06:00,
2013-03-04 10:11:00,31.8,20.6,0.00,SSE,158,1.5,1.5,63,0.00,,,0.00,WUHU216HW,2013-03-04 15:11:00,
2013-03-04 10:16:00,32.1,20.6,0.00,SSW,203,0.0,1.5,62,0.00,,,0.00,WUHU216HW,2013-03-04 15:16:00,
2013-03-04 10:21:00,32.5,20.6,0.00,SE,135,0.0,0.0,61,0.00,,,0.00,WUHU216HW,2013-03-04 15:21:00,
2013-03-04 10:26:00,32.7,20.7,0.00,SE,135,0.0,0.0,61,0.00,,,0.00,WUHU216HW,2013-03-04 15:26:00,
2013-03-04 10:31:00,33.0,20.7,0.00,WSW,248,1.3,3.5,60,0.00,,,0.00,WUHU216HW,2013-03-04 15:31:00,
2013-03-04 10:36:00,33.4,21.0,0.00,WSW,248,0.0,3.5,60,0.00,,,0.00,WUHU216HW,2013-03-04 15:36:00,
2013-03-04 10:41:00,33.8,20.9,0.00,SE,135,0.6,4.0,59,0.00,,,0.00,WUHU216HW,2013-03-04 15:41:00,
2013-03-04 10:46:00,34.3,21.4,0.00,NW,315,0.0,4.0,59,0.00,,,0.00,WUHU216HW,2013-03-04 15:46:00,
2013-03-04 10:51:00,34.3,21.0,0.00,SSE,158,0.0,3.8,58,0.00,,,0.00,WUHU216HW,2013-03-04 15:51:00,
2013-03-04 10:56:00,34.8,21.5,0.00,SE,135,3.1,4.4,58,0.00,,,0.00,WUHU216HW,2013-03-04 15:56:00,
2013-03-04 11:01:00,35.2,21.5,0.00,SE,135,0.0,4.4,57,0.00,,,0.00,WUHU216HW,2013-03-04 16:01:00,
2013-03-04 11:06:00,35.4,21.7,0.00,NW,315,1.1,3.1,57,0.00,,,0.00,WUHU216HW,2013-03-04 16:06:00,
2013-03-04 11:11:00,35.9,21.7,0.00,West,270,0.0,3.3,56,0.00,,,0.00,WUHU216HW,2013-03-04 16:11:00,
2013-03-04 11:16:00,36.3,22.1,0.00,SSE,158,0.0,3.3,56,0.00,,,0.00,WUHU216HW,2013-03-04 16:16:00,
2013-03-04 11:21:00,36.5,21.8,0.00,West,270,0.0,2.9,55,0.00,,,0.00,WUHU216HW,2013-03-04 16:21:00,
2013-03-04 11:26:00,37.0,22.4,0.00,SE,135,6.0,6.0,55,0.00,,,0.00,WUHU216HW,2013-03-04 16:26:00,
2013-03-04 11:31:00,37.2,22.0,0.00,SSE,158,1.5,6.0,54,0.00,,,0.00,WUHU216HW,2013-03-04 16:31:00,
2013-03-04 11:36:00,37.5,22.3,0.00,SW,225,2.6,4.2,54,0.00,,,0.00,WUHU216HW,2013-03-04 16:36:00,
2013-03-04 11:41:00,37.9,22.6,0.00,SSE,158,4.0,4.0,54,0.00,,,0.00,WUHU216HW,2013-03-04 16:41:00,
2013-03-04 11:46:00,38.4,22.7,0.00,SSE,158,4.2,4.2,53,0.00,,,0.00,WUHU216HW,2013-03-04 16:46:00,
2013-03-04 11:51:00,39.0,23.2,0.00,SE,135,2.4,4.2,53,0.00,,,0.00,WUHU216HW,2013-03-04 16:51:00,
2013-03-04 11:56:00,39.0,23.2,0.00,SE,135,0.8,3.5,53,0.00,,,0.00,WUHU216HW,2013-03-04 16:56:00,
2013-03-04 12:00:00,39.3,23.5,0.00,SSE,158,1.5,4.9,53,0.00,,,0.00,WUHU216HW,2013-03-04 17:00:00,
2013-03-04 12:05:00,39.3,23.5,0.00,WSW,248,0.0,4.9,53,0.00,,,0.00,WUHU216HW,2013-03-04 17:05:00,
2013-03-04 12:10:00,39.7,23.4,0.00,South,180,0.0,3.1,52,0.00,,,0.00,WUHU216HW,2013-03-04 17:10:00,
2013-03-04 12:15:00,40.1,22.9,0.00,ESE,113,0.6,3.1,50,0.00,,,0.00,WUHU216HW,2013-03-04 17:15:00,
2013-03-04 12:20:00,40.6,23.3,0.00,SSE,158,0.6,2.9,50,0.00,,,0.00,WUHU216HW,2013-03-04 17:20:00,
2013-03-04 12:25:00,40.8,23.5,0.00,SSE,158,0.0,2.9,50,0.00,,,0.00,WUHU216HW,2013-03-04 17:25:00,
2013-03-04 12:30:00,41.5,24.2,0.00,SSE,158,2.0,2.0,50,0.00,,,0.00,WUHU216HW,2013-03-04 17:30:00,
2013-03-04 12:35:00,41.9,24.6,0.00,SE,135,0.6,4.4,50,0.00,,,0.00,WUHU216HW,2013-03-04 17:35:00,
2013-03-04 12:40:00,42.4,24.6,0.00,SE,135,4.4,4.4,49,0.00,,,0.00,WUHU216HW,2013-03-04 17:40:00,
2013-03-04 12:45:00,42.6,24.8,0.00,SSW,203,0.2,4.4,49,0.00,,,0.00,WUHU216HW,2013-03-04 17:45:00,
2013-03-04 12:50:00,42.9,24.6,0.00,SSE,158,0.0,3.3,48,0.00,,,0.00,WUHU216HW,2013-03-04 17:50:00,
2013-03-04 12:55:00,43.5,25.0,0.00,SW,225,0.0,3.3,48,0.00,,,0.00,WUHU216HW,2013-03-04 17:55:00,
2013-03-04 13:00:00,44.0,24.4,0.00,South,180,1.5,3.5,46,0.00,,,0.00,WUHU216HW,2013-03-04 18:00:00,
2013-03-04 13:05:00,44.4,24.2,0.00,SSE,158,0.0,3.8,45,0.00,,,0.00,WUHU216HW,2013-03-04 18:05:00,
2013-03-04 13:10:00,44.4,24.2,0.00,SSE,158,6.0,6.0,45,0.00,,,0.00,WUHU216HW,2013-03-04 18:10:00,
2013-03-04 13:15:00,44.9,24.7,0.00,SSE,158,3.1,6.0,45,0.00,,,0.00,WUHU216HW,2013-03-04 18:15:00,
2013-03-04 13:20:00,45.1,24.9,0.00,SSE,158,3.8,6.0,45,0.00,,,0.00,WUHU216HW,2013-03-04 18:20:00,
2013-03-04 13:25:00,45.3,25.0,0.00,WSW,248,0.0,6.0,45,0.00,,,0.00,WUHU216HW,2013-03-04 18:25:00,
2013-03-04 13:29:00,45.6,25.4,0.00,SSE,158,0.6,3.8,45,0.00,,,0.00,WUHU216HW,2013-03-04 18:29:00,
2013-03-04 13:30:00,45.6,25.4,0.00,SSE,158,0.6,3.8,45,0.00,,,0.00,WUHU216HW,2013-03-04 18:30:00,
2013-03-04 13:35:00,46.0,25.1,0.00,SE,135,0.0,5.3,44,0.00,,,0.00,WUHU216HW,2013-03-04 18:35:00,
2013-03-04 13:40:00,46.0,24.6,0.00,SSE,158,0.0,8.0,43,0.00,,,0.00,WUHU216HW,2013-03-04 18:40:00,
2013-03-04 13:45:00,46.2,24.8,0.00,SSE,158,4.2,8.0,43,0.00,,,0.00,WUHU216HW,2013-03-04 18:45:00,
2013-03-04 13:50:00,46.5,25.5,0.00,SE,135,2.4,4.9,43,0.00,,,0.00,WUHU216HW,2013-03-04 18:50:00,
2013-03-04 13:55:00,46.5,25.1,0.00,SSE,158,0.0,4.9,43,0.00,,,0.00,WUHU216HW,2013-03-04 18:55:00,
2013-03-04 14:00:00,46.5,25.1,0.00,SE,135,0.0,3.8,43,0.00,,,0.00,WUHU216HW,2013-03-04 19:00:00,
2013-03-04 14:05:00,46.5,25.1,0.00,SE,135,1.1,3.1,43,0.00,,,0.00,WUHU216HW,2013-03-04 19:05:00,
2013-03-04 14:10:00,46.5,25.1,0.00,SE,135,0.0,2.2,43,0.00,,,0.00,WUHU216HW,2013-03-04 19:10:00,
2013-03-04 14:15:00,46.5,25.1,0.00,SE,135,1.3,3.8,43,0.00,,,0.00,WUHU216HW,2013-03-04 19:15:00,
2013-03-04 14:20:00,46.7,25.3,0.00,SSE,158,0.0,3.8,43,0.00,,,0.00,WUHU216HW,2013-03-04 19:20:00,
2013-03-04 14:25:00,46.7,24.7,0.00,SSE,158,0.0,3.3,42,0.00,,,0.00,WUHU216HW,2013-03-04 19:25:00,
2013-03-04 14:30:00,46.5,24.6,0.00,SSE,158,1.5,3.3,42,0.00,,,0.00,WUHU216HW,2013-03-04 19:30:00,
2013-03-04 14:35:00,46.5,24.6,0.00,SSE,158,4.4,4.6,42,0.00,,,0.00,WUHU216HW,2013-03-04 19:35:00,
2013-03-04 14:40:00,46.5,24.6,0.00,SSE,158,3.1,5.8,42,0.00,,,0.00,WUHU216HW,2013-03-04 19:40:00,
2013-03-04 14:45:00,46.5,24.0,0.00,West,270,0.0,5.8,41,0.00,,,0.00,WUHU216HW,2013-03-04 19:45:00,
2013-03-04 14:50:00,46.5,24.0,0.00,SE,135,0.0,4.6,41,0.00,,,0.00,WUHU216HW,2013-03-04 19:50:00,
2013-03-04 14:55:00,46.5,24.6,0.00,SSE,158,0.0,4.6,42,0.00,,,0.00,WUHU216HW,2013-03-04 19:55:00,
2013-03-04 15:00:00,46.9,24.3,0.00,West,270,0.0,0.0,41,0.00,,,0.00,WUHU216HW,2013-03-04 20:00:00,
2013-03-04 15:05:00,46.9,24.3,0.00,SSE,158,0.0,0.0,41,0.00,,,0.00,WUHU216HW,2013-03-04 20:05:00,
2013-03-04 15:10:00,46.9,24.3,0.00,SE,135,0.0,3.5,41,0.00,,,0.00,WUHU216HW,2013-03-04 20:10:00,
2013-03-04 15:15:00,47.1,24.5,0.00,SSE,158,1.7,5.3,41,0.00,,,0.00,WUHU216HW,2013-03-04 20:15:00,
2013-03-04 15:20:00,47.1,24.0,0.00,NW,315,0.0,5.3,40,0.00,,,0.00,WUHU216HW,2013-03-04 20:20:00,
2013-03-04 15:25:00,47.3,24.1,0.00,NW,315,0.0,5.3,40,0.00,,,0.00,WUHU216HW,2013-03-04 20:25:00,
2013-03-04 15:30:00,47.1,24.0,0.00,ESE,113,1.7,3.3,40,0.00,,,0.00,WUHU216HW,2013-03-04 20:30:00,
2013-03-04 15:35:00,47.3,24.1,0.00,SE,135,0.0,3.3,40,0.00,,,0.00,WUHU216HW,2013-03-04 20:35:00,
2013-03-04 15:40:00,47.3,24.1,0.00,SE,135,0.0,3.3,40,0.00,,,0.00,WUHU216HW,2013-03-04 20:40:00,
2013-03-04 15:45:00,47.1,24.0,0.00,SE,135,3.1,3.3,40,0.00,,,0.00,WUHU216HW,2013-03-04 20:45:00,
2013-03-04 15:50:00,47.3,24.1,0.00,SE,135,1.1,3.3,40,0.00,,,0.00,WUHU216HW,2013-03-04 20:50:00,
2013-03-04 15:55:00,47.3,24.1,0.00,SE,135,1.3,3.5,40,0.00,,,0.00,WUHU216HW,2013-03-04 20:55:00,
2013-03-04 16:00:00,47.3,23.5,0.00,SE,135,0.0,3.5,39,0.00,,,0.00,WUHU216HW,2013-03-04 21:00:00,
2013-03-04 16:05:00,47.3,23.5,0.00,SE,135,0.0,2.4,39,0.00,,,0.00,WUHU216HW,2013-03-04 21:05:00,
2013-03-04 16:10:00,47.3,23.5,0.00,SE,135,3.1,3.1,39,0.00,,,0.00,WUHU216HW,2013-03-04 21:10:00,
2013-03-04 16:15:00,47.4,23.0,0.00,SE,135,0.0,3.1,38,0.00,,,0.00,WUHU216HW,2013-03-04 21:15:00,
2013-03-04 16:20:00,47.6,23.8,0.00,SE,135,0.0,3.1,39,0.00,,,0.00,WUHU216HW,2013-03-04 21:20:00,
2013-03-04 16:25:00,47.4,23.0,0.00,SE,135,0.0,1.5,38,0.00,,,0.00,WUHU216HW,2013-03-04 21:25:00,
2013-03-04 16:30:00,47.6,23.1,0.00,SE,135,1.7,3.1,38,0.00,,,0.00,WUHU216HW,2013-03-04 21:30:00,
2013-03-04 16:35:00,47.6,23.1,0.00,SE,135,0.0,3.1,38,0.00,,,0.00,WUHU216HW,2013-03-04 21:35:00,
2013-03-04 16:40:00,47.8,23.9,0.00,SE,135,0.0,0.0,39,0.00,,,0.00,WUHU216HW,2013-03-04 21:40:00,
2013-03-04 16:45:00,47.6,23.8,0.00,SE,135,0.0,0.8,39,0.00,,,0.00,WUHU216HW,2013-03-04 21:45:00,
2013-03-04 16:50:00,47.4,23.6,0.00,SE,135,0.0,1.5,39,0.00,,,0.00,WUHU216HW,2013-03-04 21:50:00,
2013-03-04 16:55:00,47.4,23.6,0.00,SE,135,0.0,1.5,39,0.00,,,0.00,WUHU216HW,2013-03-04 21:55:00,
2013-03-04 17:00:00,47.4,23.6,0.00,NE,45,0.0,0.0,39,0.00,,,0.00,WUHU216HW,2013-03-04 22:00:00,
2013-03-04 17:05:00,47.4,24.3,0.00,NE,45,0.0,0.0,40,0.00,,,0.00,WUHU216HW,2013-03-04 22:05:00,
2013-03-04 17:10:00,47.4,24.3,0.00,NE,45,0.0,0.0,40,0.00,,,0.00,WUHU216HW,2013-03-04 22:10:00,
2013-03-04 17:15:00,47.4,24.3,0.00,ENE,68,0.0,0.0,40,0.00,,,0.00,WUHU216HW,2013-03-04 22:15:00,
2013-03-04 17:20:00,47.4,24.3,0.00,ENE,68,0.0,0.0,40,0.00,,,0.00,WUHU216HW,2013-03-04 22:20:00,
2013-03-04 17:25:00,47.4,24.3,0.00,ENE,68,0.0,0.0,40,0.00,,,0.00,WUHU216HW,2013-03-04 22:25:00,
2013-03-04 17:30:00,47.4,24.3,0.00,ENE,68,0.0,0.0,40,0.00,,,0.00,WUHU216HW,2013-03-04 22:30:00,
2013-03-04 17:35:00,47.4,24.3,0.00,ENE,68,0.0,0.0,40,0.00,,,0.00,WUHU216HW,2013-03-04 22:35:00,
2013-03-04 17:40:00,47.3,24.7,0.00,ENE,68,0.0,0.0,41,0.00,,,0.00,WUHU216HW,2013-03-04 22:40:00,
2013-03-04 17:45:00,47.1,24.5,0.00,ENE,68,0.0,0.0,41,0.00,,,0.00,WUHU216HW,2013-03-04 22:45:00,
2013-03-04 17:50:00,47.1,24.5,0.00,ENE,68,0.0,0.0,41,0.00,,,0.00,WUHU216HW,2013-03-04 22:50:00,
2013-03-04 17:55:00,46.9,24.3,0.00,ENE,68,0.0,0.0,41,0.00,,,0.00,WUHU216HW,2013-03-04 22:55:00,
2013-03-04 18:00:00,46.7,24.2,0.00,North,0,0.0,0.0,41,0.00,,,0.00,WUHU216HW,2013-03-04 23:00:00,
2013-03-04 18:05:00,46.5,24.0,0.00,ENE,68,0.0,0.0,41,0.00,,,0.00,WUHU216HW,2013-03-04 23:05:00,
2013-03-04 18:10:00,46.4,23.9,0.00,ENE,68,0.0,0.0,41,0.00,,,0.00,WUHU216HW,2013-03-04 23:10:00,
2013-03-04 18:15:00,46.2,24.2,0.00,ENE,68,0.0,0.0,42,0.00,,,0.00,WUHU216HW,2013-03-04 23:15:00,
2013-03-04 18:20:00,46.0,23.5,0.00,ENE,68,0.0,0.0,41,0.00,,,0.00,WUHU216HW,2013-03-04 23:20:00,
2013-03-04 18:25:00,46.0,24.1,0.00,ENE,68,0.0,0.0,42,0.00,,,0.00,WUHU216HW,2013-03-04 23:25:00,
2013-03-04 18:30:00,45.6,23.7,0.00,ENE,68,0.0,0.0,42,0.00,,,0.00,WUHU216HW,2013-03-04 23:30:00,
2013-03-04 18:35:00,45.5,23.6,0.00,ENE,68,0.0,0.0,42,0.00,,,0.00,WUHU216HW,2013-03-04 23:35:00,
2013-03-04 18:40:00,45.3,23.4,0.00,ENE,68,0.0,0.0,42,0.00,,,0.00,WUHU216HW,2013-03-04 23:40:00,
2013-03-04 18:45:00,45.1,23.3,0.00,ENE,68,0.0,0.0,42,0.00,,,0.00,WUHU216HW,2013-03-04 23:45:00,
2013-03-04 18:50:00,45.1,23.3,0.00,ENE,68,0.0,0.0,42,0.00,,,0.00,WUHU216HW,2013-03-04 23:50:00,
2013-03-04 18:55:00,44.9,23.1,0.00,ENE,68,0.0,0.0,42,0.00,,,0.00,WUHU216HW,2013-03-04 23:55:00,
2013-03-04 19:00:00,44.7,22.9,0.00,ENE,68,0.0,0.0,42,0.00,,,0.00,WUHU216HW,2013-03-05 00:00:00,
2013-03-04 19:05:00,44.4,23.1,0.00,ENE,68,0.0,0.0,43,0.00,,,0.00,WUHU216HW,2013-03-05 00:05:00,
2013-03-04 19:10:00,44.2,22.4,0.00,ENE,68,0.0,0.0,42,0.00,,,0.00,WUHU216HW,2013-03-05 00:10:00,
2013-03-04 19:15:00,43.8,22.1,0.00,ENE,68,0.0,0.0,42,0.00,,,0.00,WUHU216HW,2013-03-05 00:15:00,
2013-03-04 19:20:00,43.5,21.8,0.00,ENE,68,0.0,0.0,42,0.00,,,0.00,WUHU216HW,2013-03-05 00:20:00,
2013-03-04 19:25:00,43.1,21.5,0.00,ENE,68,0.0,0.0,42,0.00,,,0.00,WUHU216HW,2013-03-05 00:25:00,
2013-03-04 19:30:00,42.9,21.9,0.00,ENE,68,0.0,0.0,43,0.00,,,0.00,WUHU216HW,2013-03-05 00:30:00,
2013-03-04 19:35:00,42.6,21.5,0.00,ENE,68,0.0,0.0,43,0.00,,,0.00,WUHU216HW,2013-03-05 00:35:00,
2013-03-04 19:40:00,42.6,21.5,0.00,ENE,68,0.0,0.0,43,0.00,,,0.00,WUHU216HW,2013-03-05 00:40:00,
2013-03-04 19:45:00,42.0,21.5,0.00,ENE,68,0.0,0.0,44,0.00,,,0.00,WUHU216HW,2013-03-05 00:45:00,
2013-03-04 19:50:00,41.7,20.7,0.00,ENE,68,0.0,0.0,43,0.00,,,0.00,WUHU216HW,2013-03-05 00:50:00,
2013-03-04 19:55:00,41.3,20.9,0.00,ENE,68,0.0,0.0,44,0.00,,,0.00,WUHU216HW,2013-03-05 00:55:00,
2013-03-04 20:00:00,41.1,20.7,0.00,ENE,68,0.0,0.0,44,0.00,,,0.00,WUHU216HW,2013-03-05 01:00:00,
2013-03-04 20:05:00,40.8,20.4,0.00,ENE,68,0.0,0.0,44,0.00,,,0.00,WUHU216HW,2013-03-05 01:05:00,
2013-03-04 20:10:00,40.8,20.4,0.00,ENE,68,0.0,0.0,44,0.00,,,0.00,WUHU216HW,2013-03-05 01:10:00,
2013-03-04 20:15:00,40.4,20.1,0.00,ENE,68,0.0,0.0,44,0.00,,,0.00,WUHU216HW,2013-03-05 01:15:00,
2013-03-04 20:20:00,40.2,20.4,0.00,ENE,68,0.0,0.0,45,0.00,,,0.00,WUHU216HW,2013-03-05 01:20:00,
2013-03-04 20:25:00,40.1,20.3,0.00,ENE,68,0.0,0.0,45,0.00,,,0.00,WUHU216HW,2013-03-05 01:25:00,
2013-03-04 20:30:00,39.9,20.1,0.00,ENE,68,0.0,0.0,45,0.00,,,0.00,WUHU216HW,2013-03-05 01:30:00,
2013-03-04 20:35:00,39.9,20.1,0.00,ENE,68,0.0,0.0,45,0.00,,,0.00,WUHU216HW,2013-03-05 01:35:00,
2013-03-04 20:40:00,39.9,20.6,0.00,ENE,68,0.0,0.0,46,0.00,,,0.00,WUHU216HW,2013-03-05 01:40:00,
2013-03-04 20:45:00,39.7,20.4,0.00,ENE,68,0.0,0.0,46,0.00,,,0.00,WUHU216HW,2013-03-05 01:45:00,
2013-03-04 20:50:00,39.3,20.1,0.00,ENE,68,0.0,0.0,46,0.00,,,0.00,WUHU216HW,2013-03-05 01:50:00,
2013-03-04 20:55:00,39.2,20.0,0.00,ENE,68,0.0,0.0,46,0.00,,,0.00,WUHU216HW,2013-03-05 01:55:00,
2013-03-04 21:00:00,38.8,19.8,0.00,ENE,68,0.0,0.0,46,0.00,,,0.00,WUHU216HW,2013-03-05 02:00:00,
2013-03-04 21:05:00,38.4,19.3,0.00,ENE,68,0.0,0.0,46,0.00,,,0.00,WUHU216HW,2013-03-05 02:05:00,
2013-03-04 21:10:00,38.3,19.7,0.00,ENE,68,0.0,0.0,46,0.00,,,0.00,WUHU216HW,2013-03-05 02:10:00,
2013-03-04 21:15:00,38.1,19.5,0.00,ENE,68,0.0,0.0,47,0.00,,,0.00,WUHU216HW,2013-03-05 02:15:00,
2013-03-04 21:20:00,38.1,19.5,0.00,ENE,68,0.0,0.0,47,0.00,,,0.00,WUHU216HW,2013-03-05 02:20:00,
2013-03-04 21:25:00,38.1,20.0,0.00,ENE,68,0.0,0.0,48,0.00,,,0.00,WUHU216HW,2013-03-05 02:25:00,
2013-03-04 21:30:00,38.1,20.0,0.00,ENE,68,0.0,0.0,48,0.00,,,0.00,WUHU216HW,2013-03-05 02:30:00,
2013-03-04 21:35:00,37.9,19.9,0.00,ENE,68,0.0,0.0,48,0.00,,,0.00,WUHU216HW,2013-03-05 02:35:00,
2013-03-04 21:40:00,37.9,20.4,0.00,ENE,68,0.0,0.0,49,0.00,,,0.00,WUHU216HW,2013-03-05 02:40:00,
2013-03-04 21:45:00,37.9,20.2,0.00,ENE,68,0.0,0.0,49,0.00,,,0.00,WUHU216HW,2013-03-05 02:45:00,
2013-03-04 21:50:00,37.7,20.4,0.00,ENE,68,0.0,0.0,49,0.00,,,0.00,WUHU216HW,2013-03-05 02:50:00,
2013-03-04 21:55:00,37.9,20.4,0.00,ENE,68,0.0,0.0,49,0.00,,,0.00,WUHU216HW,2013-03-05 02:55:00,
2013-03-04 22:00:00,37.7,20.8,0.00,ENE,68,0.0,0.0,50,0.00,,,0.00,WUHU216HW,2013-03-05 03:00:00,
2013-03-04 22:05:00,37.5,20.6,0.00,ENE,68,0.0,0.0,50,0.00,,,0.00,WUHU216HW,2013-03-05 03:05:00,
2013-03-04 22:10:00,37.5,20.6,0.00,ENE,68,0.0,0.0,50,0.00,,,0.00,WUHU216HW,2013-03-05 03:10:00,
2013-03-04 22:15:00,37.4,20.4,0.00,ENE,68,0.0,0.0,50,0.00,,,0.00,WUHU216HW,2013-03-05 03:15:00,
2013-03-04 22:20:00,37.2,20.7,0.00,ENE,68,0.0,0.0,51,0.00,,,0.00,WUHU216HW,2013-03-05 03:20:00,
2013-03-04 22:25:00,37.2,20.7,0.00,ENE,68,0.0,0.0,51,0.00,,,0.00,WUHU216HW,2013-03-05 03:25:00,
2013-03-04 22:30:00,37.0,20.5,0.00,ENE,68,0.0,0.0,51,0.00,,,0.00,WUHU216HW,2013-03-05 03:30:00,
2013-03-04 22:35:00,36.6,20.2,0.00,ENE,68,0.0,0.0,51,0.00,,,0.00,WUHU216HW,2013-03-05 03:35:00,
2013-03-04 22:40:00,36.5,20.1,0.00,ENE,68,0.0,0.0,51,0.00,,,0.00,WUHU216HW,2013-03-05 03:40:00,
2013-03-04 22:45:00,36.3,20.3,0.00,ENE,68,0.0,0.0,52,0.00,,,0.00,WUHU216HW,2013-03-05 03:45:00,
2013-03-04 22:50:00,36.1,20.2,0.00,ENE,68,0.0,0.0,52,0.00,,,0.00,WUHU216HW,2013-03-05 03:50:00,
2013-03-04 22:55:00,36.1,20.2,0.00,ENE,68,0.0,0.0,52,0.00,,,0.00,WUHU216HW,2013-03-05 03:55:00,
2013-03-04 23:00:00,35.9,20.4,0.00,ENE,68,0.0,0.0,53,0.00,,,0.00,WUHU216HW,2013-03-05 04:00:00,
2013-03-04 23:05:00,35.9,20.4,0.00,ENE,68,0.0,0.0,53,0.00,,,0.00,WUHU216HW,2013-03-05 04:05:00,
2013-03-04 23:10:00,35.9,20.4,0.00,ENE,68,0.0,0.0,53,0.00,,,0.00,WUHU216HW,2013-03-05 04:10:00,
2013-03-04 23:15:00,35.7,20.3,0.00,ENE,68,0.0,0.0,53,0.00,,,0.00,WUHU216HW,2013-03-05 04:15:00,
2013-03-04 23:20:00,35.7,20.7,0.00,ENE,68,0.0,0.0,54,0.00,,,0.00,WUHU216HW,2013-03-05 04:20:00,
2013-03-04 23:25:00,35.4,20.4,0.00,ENE,68,0.0,0.0,54,0.00,,,0.00,WUHU216HW,2013-03-05 04:25:00,
2013-03-04 23:30:00,35.4,20.4,0.00,ENE,68,0.0,0.0,54,0.00,,,0.00,WUHU216HW,2013-03-05 04:30:00,
2013-03-04 23:35:00,35.4,20.8,0.00,ENE,68,0.0,0.0,55,0.00,,,0.00,WUHU216HW,2013-03-05 04:35:00,
2013-03-04 23:40:00,35.2,20.6,0.00,ENE,68,0.0,0.0,55,0.00,,,0.00,WUHU216HW,2013-03-05 04:40:00,
2013-03-04 23:45:00,35.4,20.8,0.00,ENE,68,0.0,0.0,55,0.00,,,0.00,WUHU216HW,2013-03-05 04:45:00,
2013-03-04 23:50:00,35.4,20.8,0.00,ENE,68,0.0,0.0,55,0.00,,,0.00,WUHU216HW,2013-03-05 04:50:00,
2013-03-04 23:55:00,35.4,21.2,0.00,ENE,68,0.0,0.0,56,0.00,,,0.00,WUHU216HW,2013-03-05 04:55:00,